createdAt,value
2018-05-23T00:00:47.871Z,99.24
2018-05-23T00:01:47.938Z,99.15
2018-05-23T00:02:47.906Z,99.99
2018-05-23T00:03:47.923Z,98.86
2018-05-23T00:04:47.942Z,99.29
2018-05-23T00:05:47.958Z,99.29
2018-05-23T00:06:47.976Z,99.53
2018-05-23T00:07:48.079Z,99.48
2018-05-23T00:08:48.011Z,99.39
2018-05-23T00:09:48.029Z,99.48
2018-05-23T00:10:48.048Z,99.58
2018-05-23T00:11:48.068Z,99.19
2018-05-23T00:12:48.083Z,99.39
2018-05-23T00:13:48.245Z,99.39
2018-05-23T00:14:48.118Z,99.39
2018-05-23T00:15:48.136Z,99.48
2018-05-23T00:16:48.154Z,99.19
2018-05-23T00:17:48.171Z,99.99
2018-05-23T00:18:48.194Z,99.99
2018-05-23T00:19:48.296Z,99.99
2018-05-23T00:20:48.236Z,99.99
2018-05-23T00:21:48.242Z,99.39
2018-05-23T00:22:48.262Z,98.81
2018-05-23T00:23:48.278Z,98.81
2018-05-23T00:24:48.310Z,99.01
2018-05-23T00:25:48.315Z,98.91
2018-05-23T00:26:48.333Z,99.19
2018-05-23T00:27:48.349Z,98.72
2018-05-23T00:28:48.367Z,99.29
2018-05-23T00:29:48.386Z,99.99
2018-05-23T00:30:48.404Z,99.99
2018-05-23T00:31:48.421Z,99.77
2018-05-23T00:32:48.438Z,99.01
2018-05-23T00:33:48.456Z,99.99
2018-05-23T00:34:48.474Z,99.99
2018-05-23T00:35:48.493Z,99.99
2018-05-23T00:36:48.515Z,99.99
2018-05-23T00:37:48.578Z,99.99
2018-05-23T00:38:48.546Z,99.99
2018-05-23T00:39:48.566Z,99.99
2018-05-23T00:40:48.581Z,99.99
2018-05-23T00:41:48.603Z,99.72
2018-05-23T00:42:48.620Z,99.63
2018-05-23T00:43:48.636Z,99.99
2018-05-23T00:44:48.653Z,99.91
2018-05-23T00:45:48.671Z,99.99
2018-05-23T00:46:48.688Z,99.99
2018-05-23T00:47:48.709Z,99.99
2018-05-23T00:48:48.724Z,99.99
2018-05-23T00:49:48.746Z,99.91
2018-05-23T00:50:48.761Z,99.91
2018-05-23T00:51:48.777Z,99.99
2018-05-23T00:52:48.796Z,99.99
2018-05-23T00:53:48.814Z,99.99
2018-05-23T00:54:48.835Z,99.99
2018-05-23T00:55:48.899Z,99.99
2018-05-23T00:56:48.870Z,99.99
2018-05-23T00:57:48.884Z,99.99
2018-05-23T00:58:48.906Z,99.99
2018-05-23T00:59:48.918Z,99.99
2018-05-23T01:00:48.938Z,99.99
2018-05-23T01:01:48.959Z,99.99
2018-05-23T01:02:48.973Z,99.99
2018-05-23T01:03:48.990Z,99.99
2018-05-23T01:04:49.011Z,99.99
2018-05-23T01:05:49.027Z,99.99
2018-05-23T01:06:49.046Z,99.99
2018-05-23T01:07:49.062Z,99.99
2018-05-23T01:08:49.097Z,99.99
2018-05-23T01:09:49.099Z,99.99
2018-05-23T01:10:49.116Z,99.99
2018-05-23T01:11:49.133Z,99.99
2018-05-23T01:12:49.163Z,99.99
2018-05-23T01:13:49.171Z,99.99
2018-05-23T01:14:49.269Z,99.99
2018-05-23T01:15:49.205Z,99.99
2018-05-23T01:16:49.222Z,99.99
2018-05-23T01:17:49.240Z,99.99
2018-05-23T01:18:49.259Z,99.99
2018-05-23T01:19:49.326Z,99.99
2018-05-23T01:20:49.373Z,99.99
2018-05-23T01:21:49.313Z,99.99
2018-05-23T01:22:49.328Z,99.99
2018-05-23T01:23:49.348Z,99.99
2018-05-23T01:24:49.370Z,99.99
2018-05-23T01:25:49.441Z,99.99
2018-05-23T01:26:49.406Z,99.99
2018-05-23T01:27:49.419Z,99.99
2018-05-23T01:28:49.438Z,99.99
2018-05-23T01:29:49.454Z,99.99
2018-05-23T01:30:49.473Z,99.99
2018-05-23T01:31:49.491Z,99.99
2018-05-23T01:32:49.507Z,99.99
2018-05-23T01:33:49.524Z,99.99
2018-05-23T01:34:49.544Z,99.99
2018-05-23T01:35:49.560Z,99.99
2018-05-23T01:36:49.578Z,99.99
2018-05-23T01:37:49.647Z,99.99
2018-05-23T01:38:49.621Z,99.99
2018-05-23T01:39:49.631Z,99.99
2018-05-23T01:40:49.652Z,99.99
2018-05-23T01:41:49.668Z,99.99
2018-05-23T01:42:49.686Z,99.99
2018-05-23T01:43:49.753Z,99.99
2018-05-23T01:44:49.723Z,99.99
2018-05-23T01:45:49.738Z,99.99
2018-05-23T01:46:49.756Z,99.99
2018-05-23T01:47:49.774Z,99.99
2018-05-23T01:48:49.790Z,99.99
2018-05-23T01:49:49.816Z,99.99
2018-05-23T01:50:49.844Z,99.99
2018-05-23T01:51:49.845Z,99.99
2018-05-23T01:52:49.863Z,99.99
2018-05-23T01:53:49.881Z,99.99
2018-05-23T01:54:49.906Z,99.99
2018-05-23T01:55:49.915Z,99.99
2018-05-23T01:56:49.934Z,99.99
2018-05-23T01:57:50.041Z,99.99
2018-05-23T01:58:49.970Z,99.99
2018-05-23T01:59:49.987Z,99.99
2018-05-23T02:00:50.019Z,99.99
2018-05-23T02:01:50.024Z,99.99
2018-05-23T02:02:50.043Z,99.99
2018-05-23T02:03:50.136Z,99.99
2018-05-23T02:04:50.076Z,99.99
2018-05-23T02:05:50.095Z,99.99
2018-05-23T02:06:50.114Z,99.99
2018-05-23T02:07:50.187Z,99.99
2018-05-23T02:08:50.149Z,99.99
2018-05-23T02:09:50.220Z,99.99
2018-05-23T02:10:50.191Z,99.99
2018-05-23T02:11:50.201Z,99.99
2018-05-23T02:12:50.220Z,99.99
2018-05-23T02:13:50.288Z,99.99
2018-05-23T02:14:50.256Z,99.99
2018-05-23T02:15:50.274Z,99.99
2018-05-23T02:16:50.291Z,99.99
2018-05-23T02:17:50.310Z,99.99
2018-05-23T02:18:50.327Z,99.99
2018-05-23T02:19:50.347Z,99.99
2018-05-23T02:20:50.362Z,99.99
2018-05-23T02:21:50.382Z,99.99
2018-05-23T02:22:50.399Z,99.99
2018-05-23T02:23:50.416Z,99.99
2018-05-23T02:24:50.436Z,99.96
2018-05-23T02:25:50.452Z,99.58
2018-05-23T02:26:50.473Z,99.99
2018-05-23T02:27:50.492Z,99.99
2018-05-23T02:28:50.505Z,99.99
2018-05-23T02:29:50.524Z,99.99
2018-05-23T02:30:50.543Z,99.96
2018-05-23T02:31:50.609Z,99.01
2018-05-23T02:32:50.581Z,99.34
2018-05-23T02:33:50.595Z,98.96
2018-05-23T02:34:50.617Z,98.86
2018-05-23T02:35:50.629Z,98.67
2018-05-23T02:36:50.719Z,98.67
2018-05-23T02:37:50.719Z,98.67
2018-05-23T02:38:50.685Z,98.48
2018-05-23T02:39:50.700Z,99.44
2018-05-23T02:40:50.719Z,99.05
2018-05-23T02:41:50.738Z,98.96
2018-05-23T02:42:50.756Z,98.96
2018-05-23T02:43:50.779Z,99.05
2018-05-23T02:44:50.795Z,98.67
2018-05-23T02:45:50.809Z,98.86
2018-05-23T02:46:50.830Z,97.81
2018-05-23T02:47:50.846Z,98.77
2018-05-23T02:48:50.865Z,99.39
2018-05-23T02:49:50.937Z,99.19
2018-05-23T02:50:50.899Z,99.48
2018-05-23T02:51:50.918Z,99.10
2018-05-23T02:52:50.935Z,99.99
2018-05-23T02:53:50.962Z,99.10
2018-05-23T02:54:50.975Z,99.96
2018-05-23T02:55:51.041Z,99.77
2018-05-23T02:56:51.008Z,99.96
2018-05-23T02:57:51.026Z,99.96
2018-05-23T02:58:51.047Z,99.99
2018-05-23T02:59:51.063Z,99.96
2018-05-23T03:00:51.083Z,99.99
2018-05-23T03:01:54.905Z,99.99
2018-05-23T03:02:51.159Z,99.99
2018-05-23T03:03:51.133Z,99.99
2018-05-23T03:04:51.153Z,99.99
2018-05-23T03:05:51.172Z,99.99
2018-05-23T03:06:51.287Z,99.99
2018-05-23T03:07:51.206Z,99.99
2018-05-23T03:08:51.222Z,99.99
2018-05-23T03:09:51.242Z,99.99
2018-05-23T03:10:51.278Z,99.99
2018-05-23T03:11:51.279Z,99.99
2018-05-23T03:12:51.296Z,99.99
2018-05-23T03:13:51.314Z,99.99
2018-05-23T03:14:51.333Z,99.99
2018-05-23T03:15:51.356Z,99.99
2018-05-23T03:16:51.369Z,99.99
2018-05-23T03:17:51.385Z,99.99
2018-05-23T03:18:51.403Z,99.99
2018-05-23T03:19:51.419Z,99.99
2018-05-23T03:20:51.437Z,99.99
2018-05-23T03:21:51.459Z,99.99
2018-05-23T03:22:51.475Z,99.99
2018-05-23T03:23:51.492Z,99.99
2018-05-23T03:24:51.512Z,99.99
2018-05-23T03:25:51.528Z,99.99
2018-05-23T03:26:51.547Z,99.99
2018-05-23T03:27:51.564Z,99.99
2018-05-23T03:28:51.582Z,99.99
2018-05-23T03:29:51.651Z,99.99
2018-05-23T03:30:51.623Z,99.99
2018-05-23T03:31:51.637Z,99.99
2018-05-23T03:32:51.654Z,99.99
2018-05-23T03:33:51.676Z,99.82
2018-05-23T03:34:51.691Z,98.91
2018-05-23T03:35:51.767Z,99.96
2018-05-23T03:36:51.738Z,99.96
2018-05-23T03:37:51.744Z,99.99
2018-05-23T03:38:51.795Z,99.99
2018-05-23T03:39:51.779Z,99.99
2018-05-23T03:40:51.797Z,99.99
2018-05-23T03:41:51.815Z,99.99
2018-05-23T03:42:51.834Z,99.68
2018-05-23T03:43:51.852Z,99.99
2018-05-23T03:44:51.870Z,99.15
2018-05-23T03:45:51.887Z,99.05
2018-05-23T03:46:51.905Z,99.63
2018-05-23T03:47:51.923Z,99.01
2018-05-23T03:48:51.945Z,99.24
2018-05-23T03:49:51.960Z,99.99
2018-05-23T03:50:51.979Z,99.63
2018-05-23T03:51:51.994Z,99.44
2018-05-23T03:52:52.013Z,99.82
2018-05-23T03:53:52.032Z,99.77
2018-05-23T03:54:52.083Z,99.99
2018-05-23T03:55:52.067Z,99.99
2018-05-23T03:56:52.085Z,99.99
2018-05-23T03:57:52.103Z,99.99
2018-05-23T03:58:52.121Z,99.99
2018-05-23T03:59:52.139Z,99.99
2018-05-23T04:00:52.167Z,99.99
2018-05-23T04:01:52.174Z,99.99
2018-05-23T04:02:52.193Z,99.99
2018-05-23T04:03:52.210Z,99.99
2018-05-23T04:04:52.232Z,99.99
2018-05-23T04:05:52.248Z,99.99
2018-05-23T04:06:52.265Z,99.99
2018-05-23T04:07:52.281Z,99.99
2018-05-23T04:08:52.301Z,99.99
2018-05-23T04:09:52.324Z,99.99
2018-05-23T04:10:52.337Z,99.99
2018-05-23T04:11:52.360Z,99.99
2018-05-23T04:12:52.373Z,99.99
2018-05-23T04:13:52.472Z,99.99
2018-05-23T04:14:52.407Z,99.99
2018-05-23T04:15:52.427Z,99.99
2018-05-23T04:16:52.443Z,99.99
2018-05-23T04:17:52.461Z,99.99
2018-05-23T04:18:52.481Z,99.99
2018-05-23T04:19:52.572Z,99.99
2018-05-23T04:20:52.515Z,99.99
2018-05-23T04:21:52.534Z,99.99
2018-05-23T04:22:52.552Z,99.99
2018-05-23T04:23:52.569Z,99.99
2018-05-23T04:24:52.654Z,99.99
2018-05-23T04:25:52.623Z,99.99
2018-05-23T04:26:52.623Z,99.99
2018-05-23T04:27:52.641Z,99.99
2018-05-23T04:28:52.658Z,99.99
2018-05-23T04:29:52.674Z,99.99
2018-05-23T04:30:52.697Z,99.99
2018-05-23T04:31:52.712Z,99.99
2018-05-23T04:32:52.728Z,99.99
2018-05-23T04:33:52.748Z,99.99
2018-05-23T04:34:52.764Z,99.99
2018-05-23T04:35:52.782Z,99.99
2018-05-23T04:36:52.799Z,99.99
2018-05-23T04:37:52.816Z,99.99
2018-05-23T04:38:52.840Z,99.99
2018-05-23T04:39:52.851Z,99.99
2018-05-23T04:40:52.870Z,99.99
2018-05-23T04:41:52.889Z,99.99
2018-05-23T04:42:52.907Z,99.99
2018-05-23T04:43:52.923Z,99.99
2018-05-23T04:44:52.943Z,99.99
2018-05-23T04:45:52.962Z,99.99
2018-05-23T04:46:52.977Z,99.99
2018-05-23T04:47:53.022Z,99.99
2018-05-23T04:48:53.108Z,99.99
2018-05-23T04:49:53.027Z,99.99
2018-05-23T04:50:53.099Z,99.99
2018-05-23T04:51:53.061Z,99.99
2018-05-23T04:52:53.083Z,99.99
2018-05-23T04:53:53.100Z,99.99
2018-05-23T04:54:53.118Z,99.99
2018-05-23T04:55:53.134Z,99.99
2018-05-23T04:56:53.151Z,99.99
2018-05-23T04:57:53.172Z,99.99
2018-05-23T04:58:53.186Z,99.99
2018-05-23T04:59:53.202Z,99.99
2018-05-23T05:00:53.222Z,99.99
2018-05-23T05:01:53.237Z,99.99
2018-05-23T05:02:53.255Z,99.99
2018-05-23T05:03:53.272Z,99.99
2018-05-23T05:04:53.292Z,99.99
2018-05-23T05:05:53.311Z,99.99
2018-05-23T05:06:53.328Z,99.99
2018-05-23T05:07:53.347Z,99.99
2018-05-23T05:08:53.361Z,99.99
2018-05-23T05:09:53.434Z,99.99
2018-05-23T05:10:53.403Z,99.99
2018-05-23T05:11:53.417Z,99.99
2018-05-23T05:12:53.433Z,99.99
2018-05-23T05:13:53.546Z,99.99
2018-05-23T05:14:53.467Z,99.99
2018-05-23T05:15:53.544Z,99.99
2018-05-23T05:16:53.501Z,99.99
2018-05-23T05:17:53.519Z,99.99
2018-05-23T05:18:53.540Z,99.99
2018-05-23T05:19:53.555Z,99.99
2018-05-23T05:20:53.573Z,99.99
2018-05-23T05:21:53.591Z,99.99
2018-05-23T05:22:53.608Z,99.99
2018-05-23T05:23:53.624Z,99.99
2018-05-23T05:24:53.683Z,99.99
2018-05-23T05:25:53.661Z,99.99
2018-05-23T05:26:53.678Z,99.99
2018-05-23T05:27:53.708Z,99.99
2018-05-23T05:28:53.714Z,99.99
2018-05-23T05:29:53.735Z,99.99
2018-05-23T05:30:53.749Z,99.99
2018-05-23T05:31:53.858Z,99.99
2018-05-23T05:32:53.784Z,99.99
2018-05-23T05:33:53.844Z,99.99
2018-05-23T05:34:53.820Z,99.99
2018-05-23T05:35:53.835Z,99.99
2018-05-23T05:36:53.859Z,99.99
2018-05-23T05:37:53.872Z,99.99
2018-05-23T05:38:53.955Z,99.99
2018-05-23T05:39:53.905Z,99.99
2018-05-23T05:40:53.922Z,99.99
2018-05-23T05:41:53.942Z,99.99
2018-05-23T05:42:53.959Z,99.99
2018-05-23T05:43:53.975Z,99.99
2018-05-23T05:44:53.995Z,99.99
2018-05-23T05:45:54.013Z,99.99
2018-05-23T05:46:54.060Z,99.99
2018-05-23T05:47:54.048Z,99.99
2018-05-23T05:48:54.068Z,99.99
2018-05-23T05:49:54.081Z,99.99
2018-05-23T05:50:54.105Z,99.99
2018-05-23T05:51:54.117Z,99.99
2018-05-23T05:52:54.202Z,99.99
2018-05-23T05:53:54.157Z,99.99
2018-05-23T05:54:54.178Z,99.99
2018-05-23T05:55:54.191Z,99.99
2018-05-23T05:56:54.205Z,99.99
2018-05-23T05:57:54.223Z,99.99
2018-05-23T05:58:54.299Z,99.99
2018-05-23T05:59:54.260Z,99.99
2018-05-23T06:00:54.276Z,99.99
2018-05-23T06:01:54.345Z,99.99
2018-05-23T06:02:54.312Z,99.99
2018-05-23T06:03:54.326Z,99.99
2018-05-23T06:04:54.371Z,99.99
2018-05-23T06:05:54.362Z,99.99
2018-05-23T06:06:54.382Z,99.99
2018-05-23T06:07:54.397Z,99.99
2018-05-23T06:08:54.415Z,99.99
2018-05-23T06:09:54.516Z,99.99
2018-05-23T06:10:54.488Z,99.99
2018-05-23T06:11:54.467Z,99.99
2018-05-23T06:12:54.484Z,99.99
2018-05-23T06:13:54.504Z,99.99
2018-05-23T06:14:54.521Z,99.99
2018-05-23T06:15:54.537Z,99.99
2018-05-23T06:16:54.556Z,99.99
2018-05-23T06:17:54.572Z,99.99
2018-05-23T06:18:54.593Z,99.99
2018-05-23T06:19:54.606Z,99.99
2018-05-23T06:20:54.625Z,99.99
2018-05-23T06:21:54.648Z,99.99
2018-05-23T06:22:54.662Z,99.99
2018-05-23T06:23:54.732Z,99.99
2018-05-23T06:24:54.700Z,99.99
2018-05-23T06:25:54.716Z,99.77
2018-05-23T06:26:54.730Z,99.87
2018-05-23T06:27:54.749Z,99.99
2018-05-23T06:28:54.766Z,99.99
2018-05-23T06:29:54.785Z,99.99
2018-05-23T06:30:54.826Z,99.99
2018-05-23T06:31:54.818Z,99.99
2018-05-23T06:32:54.839Z,99.99
2018-05-23T06:33:54.854Z,99.99
2018-05-23T06:34:54.870Z,99.68
2018-05-23T06:35:54.917Z,99.96
2018-05-23T06:36:54.907Z,99.99
2018-05-23T06:37:54.947Z,99.58
2018-05-23T06:38:54.942Z,99.99
2018-05-23T06:39:54.960Z,99.99
2018-05-23T06:40:54.978Z,99.99
2018-05-23T06:41:55.042Z,99.99
2018-05-23T06:42:55.013Z,99.99
2018-05-23T06:43:55.027Z,99.99
2018-05-23T06:44:55.046Z,99.99
2018-05-23T06:45:55.064Z,99.99
2018-05-23T06:46:55.081Z,99.99
2018-05-23T06:47:55.099Z,99.99
2018-05-23T06:48:55.117Z,99.99
2018-05-23T06:49:55.152Z,99.99
2018-05-23T06:50:55.153Z,99.99
2018-05-23T06:51:55.169Z,99.99
2018-05-23T06:52:55.187Z,99.99
2018-05-23T06:53:55.225Z,98.77
2018-05-23T06:54:55.223Z,97.81
2018-05-23T06:55:55.239Z,97.47
2018-05-23T06:56:55.257Z,97.52
2018-05-23T06:57:55.277Z,97.33
2018-05-23T06:58:55.295Z,98.00
2018-05-23T06:59:55.309Z,97.28
2018-05-23T07:00:55.331Z,98.05
2018-05-23T07:01:55.347Z,97.38
2018-05-23T07:02:55.372Z,96.51
2018-05-23T07:03:55.382Z,96.61
2018-05-23T07:04:55.398Z,96.03
2018-05-23T07:05:55.434Z,96.03
2018-05-23T07:06:55.436Z,95.94
2018-05-23T07:07:55.454Z,96.03
2018-05-23T07:08:55.472Z,96.03
2018-05-23T07:09:55.489Z,95.75
2018-05-23T07:10:55.534Z,95.17
2018-05-23T07:11:55.524Z,94.88
2018-05-23T07:12:55.542Z,94.12
2018-05-23T07:13:55.564Z,93.92
2018-05-23T07:14:55.578Z,93.39
2018-05-23T07:15:55.601Z,93.59
2018-05-23T07:16:55.641Z,92.19
2018-05-23T07:17:55.763Z,91.28
2018-05-23T07:18:55.651Z,90.51
2018-05-23T07:19:55.670Z,89.64
2018-05-23T07:20:55.687Z,89.74
2018-05-23T07:21:55.715Z,88.78
2018-05-23T07:22:55.724Z,88.78
2018-05-23T07:23:55.767Z,88.87
2018-05-23T07:24:55.762Z,89.36
2018-05-23T07:25:55.827Z,89.40
2018-05-23T07:26:55.799Z,89.64
2018-05-23T07:27:55.815Z,89.50
2018-05-23T07:28:55.836Z,90.08
2018-05-23T07:29:55.860Z,90.46
2018-05-23T07:30:55.877Z,90.84
2018-05-23T07:31:55.893Z,90.94
2018-05-23T07:32:55.908Z,91.28
2018-05-23T07:33:55.926Z,91.76
2018-05-23T07:34:55.947Z,92.05
2018-05-23T07:35:55.966Z,92.53
2018-05-23T07:36:55.981Z,93.20
2018-05-23T07:37:56.001Z,93.20
2018-05-23T07:38:56.019Z,92.53
2018-05-23T07:39:56.036Z,92.24
2018-05-23T07:40:56.056Z,91.81
2018-05-23T07:41:56.077Z,91.81
2018-05-23T07:42:56.092Z,91.90
2018-05-23T07:43:56.111Z,91.33
2018-05-23T07:44:56.144Z,91.81
2018-05-23T07:45:56.213Z,92.00
2018-05-23T07:46:56.173Z,91.42
2018-05-23T07:47:56.184Z,91.81
2018-05-23T07:48:56.204Z,91.71
2018-05-23T07:49:56.221Z,91.23
2018-05-23T07:50:56.240Z,91.61
2018-05-23T07:51:56.261Z,91.52
2018-05-23T07:52:56.281Z,91.81
2018-05-23T07:53:56.313Z,91.23
2018-05-23T07:54:56.322Z,90.89
2018-05-23T07:55:56.334Z,89.64
2018-05-23T07:56:56.351Z,89.64
2018-05-23T07:57:56.372Z,89.16
2018-05-23T07:58:56.390Z,89.11
2018-05-23T07:59:56.411Z,88.15
2018-05-23T08:00:56.428Z,87.76
2018-05-23T08:01:56.445Z,87.62
2018-05-23T08:02:56.467Z,87.23
2018-05-23T08:03:56.482Z,87.23
2018-05-23T08:04:56.503Z,86.65
2018-05-23T08:05:56.522Z,85.64
2018-05-23T08:06:56.540Z,84.53
2018-05-23T08:07:56.566Z,83.95
2018-05-23T08:08:56.577Z,82.74
2018-05-23T08:09:56.597Z,80.62
2018-05-23T08:10:56.621Z,80.52
2018-05-23T08:11:56.637Z,80.62
2018-05-23T08:12:56.656Z,81.25
2018-05-23T08:13:56.674Z,81.29
2018-05-23T08:14:56.693Z,80.43
2018-05-23T08:15:56.796Z,81.16
2018-05-23T08:16:56.735Z,82.17
2018-05-23T08:17:56.753Z,83.52
2018-05-23T08:18:56.823Z,84.16
2018-05-23T08:19:56.790Z,84.19
2018-05-23T08:20:56.810Z,83.72
2018-05-23T08:21:56.829Z,83.75
2018-05-23T08:22:56.848Z,82.60
2018-05-23T08:23:56.867Z,81.01
2018-05-23T08:24:56.941Z,80.81
2018-05-23T08:25:56.911Z,81.04
2018-05-23T08:26:56.928Z,79.74
2018-05-23T08:27:56.946Z,77.55
2018-05-23T08:28:56.966Z,75.89
2018-05-23T08:29:56.989Z,73.71
2018-05-23T08:30:57.059Z,72.30
2018-05-23T08:31:57.030Z,73.09
2018-05-23T08:32:57.053Z,74.69
2018-05-23T08:33:57.070Z,73.67
2018-05-23T08:34:57.087Z,72.45
2018-05-23T08:35:57.109Z,71.23
2018-05-23T08:36:57.179Z,72.96
2018-05-23T08:37:57.150Z,74.12
2018-05-23T08:38:57.170Z,74.51
2018-05-23T08:39:57.190Z,74.51
2018-05-23T08:40:57.212Z,74.21
2018-05-23T08:41:57.234Z,72.92
2018-05-23T08:42:57.257Z,73.11
2018-05-23T08:43:57.274Z,73.63
2018-05-23T08:44:57.301Z,72.03
2018-05-23T08:45:57.421Z,72.38
2018-05-23T08:46:57.339Z,75.01
2018-05-23T08:47:57.426Z,74.21
2018-05-23T08:48:57.380Z,73.80
2018-05-23T08:49:57.401Z,73.63
2018-05-23T08:50:57.423Z,74.79
2018-05-23T08:51:57.448Z,75.09
2018-05-23T08:52:57.463Z,74.89
2018-05-23T08:53:57.493Z,74.06
2018-05-23T08:54:57.509Z,72.32
2018-05-23T08:55:57.530Z,71.30
2018-05-23T08:56:57.549Z,70.81
2018-05-23T08:57:57.572Z,70.81
2018-05-23T08:58:57.592Z,71.46
2018-05-23T08:59:57.692Z,69.37
2018-05-23T09:00:57.685Z,67.33
2018-05-23T09:01:57.656Z,67.21
2018-05-23T09:02:57.681Z,67.49
2018-05-23T09:03:57.700Z,67.46
2018-05-23T09:04:57.767Z,69.07
2018-05-23T09:05:57.742Z,70.72
2018-05-23T09:06:57.764Z,69.36
2018-05-23T09:07:57.785Z,68.82
2018-05-23T09:08:57.821Z,68.49
2018-05-23T09:09:57.909Z,68.82
2018-05-23T09:10:57.851Z,69.26
2018-05-23T09:11:57.874Z,69.46
2018-05-23T09:12:57.896Z,70.48
2018-05-23T09:13:57.916Z,70.10
2018-05-23T09:14:57.938Z,69.65
2018-05-23T09:15:57.961Z,69.59
2018-05-23T09:16:57.980Z,67.69
2018-05-23T09:17:58.003Z,67.49
2018-05-23T09:18:58.076Z,67.33
2018-05-23T09:19:58.049Z,68.88
2018-05-23T09:20:58.069Z,68.98
2018-05-23T09:21:58.090Z,68.17
2018-05-23T09:22:58.123Z,66.47
2018-05-23T09:23:58.142Z,65.17
2018-05-23T09:24:58.217Z,63.85
2018-05-23T09:25:58.178Z,65.56
2018-05-23T09:26:58.204Z,66.40
2018-05-23T09:27:58.222Z,66.50
2018-05-23T09:28:58.267Z,66.40
2018-05-23T09:29:58.267Z,66.46
2018-05-23T09:30:58.290Z,67.14
2018-05-23T09:31:58.312Z,68.65
2018-05-23T09:32:58.333Z,68.59
2018-05-23T09:33:58.402Z,67.56
2018-05-23T09:34:58.376Z,65.88
2018-05-23T09:35:58.399Z,65.92
2018-05-23T09:36:58.422Z,66.56
2018-05-23T09:37:58.444Z,66.75
2018-05-23T09:38:58.464Z,68.07
2018-05-23T09:39:58.492Z,67.69
2018-05-23T09:40:58.537Z,68.30
2018-05-23T09:41:58.532Z,67.91
2018-05-23T09:42:58.562Z,67.91
2018-05-23T09:43:58.577Z,67.24
2018-05-23T09:44:58.596Z,67.14
2018-05-23T09:45:58.620Z,66.56
2018-05-23T09:46:58.673Z,66.43
2018-05-23T09:47:58.661Z,65.56
2018-05-23T09:48:58.735Z,64.85
2018-05-23T09:49:58.705Z,64.85
2018-05-23T09:50:58.728Z,64.89
2018-05-23T09:51:58.759Z,64.53
2018-05-23T09:52:58.779Z,63.49
2018-05-23T09:53:58.793Z,61.30
2018-05-23T09:54:58.899Z,60.98
2018-05-23T09:55:58.837Z,61.18
2018-05-23T09:56:58.863Z,61.49
2018-05-23T09:57:58.883Z,61.56
2018-05-23T09:58:58.908Z,60.40
2018-05-23T09:59:58.927Z,60.33
2018-05-23T10:00:59.027Z,59.30
2018-05-23T10:01:58.976Z,58.26
2018-05-23T10:02:58.997Z,58.62
2018-05-23T10:03:59.020Z,59.79
2018-05-23T10:04:59.039Z,61.66
2018-05-23T10:05:59.064Z,60.78
2018-05-23T10:06:59.287Z,60.75
2018-05-23T10:07:59.106Z,60.98
2018-05-23T10:08:59.164Z,61.85
2018-05-23T10:09:59.153Z,61.85
2018-05-23T10:10:59.175Z,61.79
2018-05-23T10:11:59.198Z,58.45
2018-05-23T10:13:59.248Z,55.63
2018-05-23T10:14:59.267Z,56.54
2018-05-23T10:15:59.294Z,57.39
2018-05-23T10:16:59.311Z,58.49
2018-05-23T10:17:59.335Z,59.46
2018-05-23T10:19:59.381Z,58.49
2018-05-23T10:20:59.405Z,58.55
2018-05-23T10:21:59.427Z,56.25
2018-05-23T10:22:59.460Z,54.99
2018-05-23T10:23:59.476Z,55.77
2018-05-23T10:24:59.546Z,54.11
2018-05-23T10:25:59.521Z,54.63
2018-05-23T10:26:59.542Z,54.96
2018-05-23T10:27:59.568Z,56.68
2018-05-23T10:28:59.595Z,58.11
2018-05-23T10:29:59.612Z,58.78
2018-05-23T10:30:59.636Z,57.94
2018-05-23T10:31:59.660Z,56.74
2018-05-23T10:32:59.680Z,54.44
2018-05-23T10:33:59.723Z,54.60
2018-05-23T10:34:59.729Z,56.46
2018-05-23T10:35:59.751Z,57.29
2018-05-23T10:36:59.825Z,55.77
2018-05-23T10:37:59.798Z,56.47
2018-05-23T10:38:59.828Z,54.80
2018-05-23T10:39:59.900Z,51.07
2018-05-23T10:40:59.866Z,49.58
2018-05-23T10:41:59.891Z,49.41
2018-05-23T10:42:59.964Z,49.61
2018-05-23T10:43:59.938Z,48.73
2018-05-23T10:44:59.965Z,50.31
2018-05-23T10:46:00.059Z,51.48
2018-05-23T10:47:00.011Z,51.81
2018-05-23T10:48:00.035Z,53.80
2018-05-23T10:49:00.110Z,54.84
2018-05-23T10:50:00.085Z,58.24
2018-05-23T10:51:00.105Z,59.21
2018-05-23T10:52:00.219Z,60.50
2018-05-23T10:53:00.152Z,60.60
2018-05-23T10:54:00.176Z,61.37
2018-05-23T10:55:00.204Z,60.75
2018-05-23T10:56:00.225Z,59.27
2018-05-23T10:57:00.257Z,57.07
2018-05-23T10:58:00.308Z,55.52
2018-05-23T10:59:00.294Z,57.65
2018-05-23T11:00:00.319Z,57.39
2018-05-23T11:01:00.389Z,54.63
2018-05-23T11:02:00.394Z,55.52
2018-05-23T11:03:00.470Z,58.14
2018-05-23T11:04:00.429Z,58.59
2018-05-23T11:05:00.435Z,57.45
2018-05-23T11:06:00.487Z,57.23
2018-05-23T11:07:00.528Z,58.20
2018-05-23T11:08:00.501Z,59.40
2018-05-23T11:09:00.637Z,58.88
2018-05-23T11:10:00.565Z,57.45
2018-05-23T11:11:00.572Z,58.14
2018-05-23T11:12:00.744Z,58.42
2018-05-23T11:13:00.669Z,57.07
2018-05-23T11:14:00.646Z,56.32
2018-05-23T11:15:00.667Z,55.50
2018-05-23T11:16:00.693Z,54.07
2018-05-23T11:17:00.710Z,52.47
2018-05-23T11:18:00.735Z,52.81
2018-05-23T11:19:00.809Z,54.17
2018-05-23T11:20:00.782Z,54.07
2018-05-23T11:21:00.805Z,53.13
2018-05-23T11:22:00.896Z,51.57
2018-05-23T11:23:00.852Z,51.87
2018-05-23T11:24:00.874Z,51.31
2018-05-23T11:25:00.900Z,53.92
2018-05-23T11:26:00.927Z,53.00
2018-05-23T11:27:00.947Z,53.03
2018-05-23T11:28:01.025Z,51.67
2018-05-23T11:29:00.996Z,52.13
2018-05-23T11:30:01.020Z,55.04
2018-05-23T11:31:01.094Z,58.14
2018-05-23T11:32:01.071Z,61.92
2018-05-23T11:33:01.093Z,64.11
2018-05-23T11:34:01.126Z,63.76
2018-05-23T11:35:01.138Z,62.56
2018-05-23T11:37:01.237Z,61.40
2018-05-23T11:38:01.282Z,63.11
2018-05-23T11:39:01.233Z,64.59
2018-05-23T11:40:01.272Z,63.75
2018-05-23T11:41:01.283Z,62.01
2018-05-23T11:42:01.305Z,62.07
2018-05-23T11:43:01.328Z,62.40
2018-05-23T11:44:01.351Z,61.85
2018-05-23T11:45:01.387Z,60.71
2018-05-23T11:46:01.470Z,58.70
2018-05-23T11:47:01.421Z,58.73
2018-05-23T11:48:01.447Z,58.09
2018-05-23T11:49:01.519Z,58.31
2018-05-23T11:50:01.502Z,58.51
2018-05-23T11:51:01.516Z,59.13
2018-05-23T11:52:01.536Z,62.07
2018-05-23T11:53:01.561Z,62.66
2018-05-23T11:54:01.586Z,63.59
2018-05-23T11:55:01.660Z,63.43
2018-05-23T11:56:01.640Z,61.26
2018-05-23T11:57:01.655Z,62.07
2018-05-23T11:58:01.679Z,63.34
2018-05-23T11:59:01.703Z,62.59
2018-05-23T12:00:01.727Z,61.39
2018-05-23T12:01:01.805Z,59.84
2018-05-23T12:02:01.773Z,60.49
2018-05-23T12:03:01.799Z,60.82
2018-05-23T12:04:01.819Z,63.31
2018-05-23T12:05:01.845Z,63.72
2018-05-23T12:06:01.867Z,62.46
2018-05-23T12:07:01.941Z,60.97
2018-05-23T12:08:01.914Z,59.13
2018-05-23T12:09:02.002Z,60.75
2018-05-23T12:10:01.962Z,60.94
2018-05-23T12:11:01.984Z,60.46
2018-05-23T12:12:02.006Z,60.42
2018-05-23T12:13:02.080Z,58.90
2018-05-23T12:14:02.056Z,57.21
2018-05-23T12:15:02.123Z,56.72
2018-05-23T12:16:02.109Z,56.86
2018-05-23T12:17:02.155Z,58.12
2018-05-23T12:18:02.151Z,58.00
2018-05-23T12:19:02.224Z,61.46
2018-05-23T12:20:02.198Z,64.47
2018-05-23T12:21:02.272Z,65.40
2018-05-23T12:22:02.245Z,64.72
2018-05-23T12:23:02.268Z,65.82
2018-05-23T12:24:02.295Z,66.24
2018-05-23T12:25:02.366Z,64.98
2018-05-23T12:26:02.337Z,62.98
2018-05-23T12:27:02.397Z,61.85
2018-05-23T12:28:02.382Z,61.98
2018-05-23T12:29:02.407Z,60.75
2018-05-23T12:30:02.430Z,60.55
2018-05-23T12:31:02.457Z,60.17
2018-05-23T12:32:02.474Z,60.14
2018-05-23T12:33:02.499Z,59.97
2018-05-23T12:34:02.523Z,59.59
2018-05-23T12:35:02.547Z,60.98
2018-05-23T12:36:02.569Z,63.92
2018-05-23T12:37:02.593Z,63.31
2018-05-23T12:38:02.660Z,62.07
2018-05-23T12:39:02.638Z,60.49
2018-05-23T12:40:02.662Z,59.23
2018-05-23T12:41:02.709Z,60.94
2018-05-23T12:42:02.721Z,60.33
2018-05-23T12:43:02.783Z,62.53
2018-05-23T12:44:02.779Z,62.43
2018-05-23T12:45:02.777Z,63.95
2018-05-23T12:46:02.799Z,63.69
2018-05-23T12:47:02.823Z,63.27
2018-05-23T12:48:02.845Z,66.33
2018-05-23T12:49:02.921Z,65.11
2018-05-23T12:50:02.903Z,65.08
2018-05-23T12:51:02.917Z,66.63
2018-05-23T12:52:02.938Z,65.66
2018-05-23T12:53:02.960Z,65.88
2018-05-23T12:54:02.983Z,64.72
2018-05-23T12:55:03.059Z,66.94
2018-05-23T12:56:03.110Z,67.11